createdAt,value
2017-09-13T00:00:25.602Z,4.30
2017-09-13T00:02:51.642Z,3.77
2017-09-13T00:05:17.639Z,3.50
2017-09-13T00:07:43.601Z,3.57
2017-09-13T00:10:09.513Z,4.00
2017-09-13T00:12:35.512Z,3.93
2017-09-13T00:15:01.456Z,3.87
2017-09-13T00:17:28.180Z,3.80
2017-09-13T00:19:54.154Z,3.80
2017-09-13T00:22:20.137Z,3.80
2017-09-13T00:24:46.071Z,3.43
2017-09-13T00:27:12.018Z,3.77
2017-09-13T00:29:38.032Z,3.60
2017-09-13T00:32:04.098Z,3.20
2017-09-13T00:34:30.031Z,4.23
2017-09-13T00:36:55.939Z,3.83
2017-09-13T00:39:21.903Z,3.57
2017-09-13T00:41:47.823Z,3.53
2017-09-13T00:44:14.510Z,3.20
2017-09-13T00:46:40.421Z,3.80
2017-09-13T00:49:06.554Z,3.50
2017-09-13T00:51:32.514Z,4.83
2017-09-13T00:53:59.191Z,4.10
2017-09-13T00:56:25.144Z,3.40
2017-09-13T00:58:51.120Z,3.33
2017-09-13T01:01:17.077Z,3.93
2017-09-13T01:03:43.037Z,4.17
2017-09-13T01:06:09.717Z,4.33
2017-09-13T01:08:35.676Z,3.60
2017-09-13T01:11:01.631Z,3.70
2017-09-13T01:13:27.621Z,3.53
2017-09-13T01:15:53.584Z,4.20
2017-09-13T01:18:19.565Z,3.90
2017-09-13T01:20:45.496Z,3.80
2017-09-13T01:23:11.453Z,3.77
2017-09-13T01:25:37.342Z,3.87
2017-09-13T01:28:03.342Z,3.87
2017-09-13T01:30:29.283Z,3.30
2017-09-13T01:32:55.216Z,4.07
2017-09-13T01:35:21.161Z,3.10
2017-09-13T01:37:47.145Z,3.67
2017-09-13T01:40:13.072Z,3.60
2017-09-13T01:42:39.115Z,3.70
2017-09-13T01:45:05.034Z,3.70
2017-09-13T01:47:30.968Z,3.50
2017-09-13T01:49:56.910Z,3.80
2017-09-13T01:52:22.831Z,3.47
2017-09-13T01:54:48.737Z,4.23
2017-09-13T01:57:14.681Z,4.63
2017-09-13T01:59:40.622Z,3.50
2017-09-13T02:02:06.549Z,3.90
2017-09-13T02:04:32.516Z,3.80
2017-09-13T02:06:58.481Z,3.60
2017-09-13T02:09:24.486Z,3.33
2017-09-13T02:11:50.436Z,3.60
2017-09-13T02:14:16.408Z,3.00
2017-09-13T02:16:42.355Z,3.10
2017-09-13T02:19:08.251Z,3.20
2017-09-13T02:21:34.155Z,3.90
2017-09-13T02:24:00.066Z,3.40
2017-09-13T02:26:25.975Z,3.33
2017-09-13T02:28:52.688Z,3.70
2017-09-13T02:31:18.636Z,3.67
2017-09-13T02:33:45.305Z,3.30
2017-09-13T02:36:11.308Z,3.57
2017-09-13T02:38:37.215Z,3.20
2017-09-13T02:41:03.202Z,3.37
2017-09-13T02:43:29.113Z,3.47
2017-09-13T02:45:55.058Z,3.87
2017-09-13T02:48:20.981Z,3.00
2017-09-13T02:50:46.916Z,3.50
2017-09-13T02:53:13.639Z,3.70
2017-09-13T02:55:39.552Z,3.70
2017-09-13T02:58:05.484Z,3.67
2017-09-13T03:00:31.430Z,3.37
2017-09-13T03:02:57.389Z,3.07
2017-09-13T03:05:23.376Z,3.17
2017-09-13T03:07:49.801Z,3.37
2017-09-13T03:10:15.736Z,3.13
2017-09-13T03:12:41.664Z,3.80
2017-09-13T03:15:07.581Z,3.30
2017-09-13T03:17:34.395Z,2.77
2017-09-13T03:20:00.327Z,3.30
2017-09-13T03:22:26.376Z,2.77
2017-09-13T03:24:52.316Z,3.00
2017-09-13T03:27:18.290Z,3.20
2017-09-13T03:29:44.277Z,3.83
2017-09-13T03:32:10.263Z,3.03
2017-09-13T03:34:36.359Z,3.27
2017-09-13T03:37:02.332Z,3.20
2017-09-13T03:39:28.236Z,3.40
2017-09-13T03:41:54.211Z,3.10
2017-09-13T03:44:20.159Z,3.20
2017-09-13T03:46:46.086Z,3.20
2017-09-13T03:49:12.046Z,2.83
2017-09-13T03:51:38.015Z,3.23
2017-09-13T03:54:03.951Z,3.40
2017-09-13T03:56:29.923Z,3.30
2017-09-13T03:58:55.877Z,3.57
2017-09-13T04:01:21.852Z,3.20
2017-09-13T04:03:47.760Z,3.23
2017-09-13T04:06:13.724Z,3.60
2017-09-13T04:08:39.626Z,3.37
2017-09-13T04:11:05.599Z,3.47
2017-09-13T04:13:31.674Z,3.27
2017-09-13T04:15:57.690Z,3.30
2017-09-13T04:18:23.746Z,3.30
2017-09-13T04:20:49.776Z,3.30
2017-09-13T04:23:15.727Z,3.70
2017-09-13T04:25:41.699Z,3.40
2017-09-13T04:28:07.802Z,4.30
2017-09-13T04:30:33.783Z,3.13
2017-09-13T04:32:59.755Z,2.70
2017-09-13T04:35:25.846Z,4.07
2017-09-13T04:37:51.888Z,3.00
2017-09-13T04:40:17.824Z,3.50
2017-09-13T04:42:43.746Z,3.70
2017-09-13T04:45:09.769Z,2.97
2017-09-13T04:47:36.549Z,3.30
2017-09-13T04:50:02.631Z,3.30
2017-09-13T04:52:28.541Z,3.50
2017-09-13T04:54:54.585Z,3.63
2017-09-13T04:57:20.598Z,3.80
2017-09-13T04:59:47.345Z,3.57
2017-09-13T05:02:14.149Z,3.70
2017-09-13T05:04:40.128Z,3.50
2017-09-13T05:07:07.003Z,3.70
2017-09-13T05:09:32.935Z,3.33
2017-09-13T05:11:58.872Z,3.70
2017-09-13T05:14:26.499Z,3.70
2017-09-13T05:16:52.535Z,3.30
2017-09-13T05:19:18.513Z,3.90
2017-09-13T05:21:44.458Z,3.77
2017-09-13T05:24:10.447Z,4.00
2017-09-13T05:26:36.461Z,4.00
2017-09-13T05:29:02.470Z,3.70
2017-09-13T05:31:29.175Z,5.00
2017-09-13T05:33:55.121Z,3.37
2017-09-13T05:36:21.040Z,3.93
2017-09-13T05:38:47.055Z,4.70
2017-09-13T05:41:13.108Z,3.50
2017-09-13T05:43:39.097Z,5.30
2017-09-13T05:46:05.070Z,3.40
2017-09-13T05:48:31.068Z,3.93
2017-09-13T05:50:57.788Z,4.43
2017-09-13T05:53:24.477Z,3.97
2017-09-13T05:55:50.403Z,3.63
2017-09-13T05:58:16.343Z,4.10
2017-09-13T06:00:42.274Z,3.40
2017-09-13T06:03:08.199Z,3.70
2017-09-13T06:05:35.150Z,3.70
2017-09-13T06:08:01.083Z,4.47
2017-09-13T06:10:27.087Z,3.40
2017-09-13T06:12:53.137Z,4.33
2017-09-13T06:15:19.059Z,3.70
2017-09-13T06:17:44.985Z,4.30
2017-09-13T06:20:10.981Z,3.10
2017-09-13T06:22:37.087Z,4.07
2017-09-13T06:25:03.336Z,7.70
2017-09-13T06:27:29.295Z,6.63
2017-09-13T06:29:55.219Z,3.83
2017-09-13T06:32:21.176Z,4.20
2017-09-13T06:34:47.065Z,3.30
2017-09-13T06:37:13.018Z,3.80
2017-09-13T06:39:39.027Z,3.90
2017-09-13T06:42:05.008Z,3.40
2017-09-13T06:44:30.938Z,3.87
2017-09-13T06:46:56.886Z,3.60
2017-09-13T06:49:22.837Z,3.67
2017-09-13T06:51:48.759Z,3.00
2017-09-13T06:54:14.702Z,3.47
2017-09-13T06:56:40.595Z,3.40
2017-09-13T06:59:06.558Z,3.70
2017-09-13T07:01:32.475Z,3.40
2017-09-13T07:03:58.670Z,4.77
2017-09-13T07:06:24.602Z,3.77
2017-09-13T07:08:51.287Z,3.43
2017-09-13T07:11:17.285Z,3.60
2017-09-13T07:13:43.248Z,3.50
2017-09-13T07:16:09.268Z,6.10
2017-09-13T07:18:35.224Z,3.60
2017-09-13T07:21:02.136Z,3.20
2017-09-13T07:23:28.153Z,3.17
2017-09-13T07:25:54.135Z,2.90
2017-09-13T07:28:20.037Z,3.03
2017-09-13T07:30:45.983Z,3.00
2017-09-13T07:33:13.546Z,3.50
2017-09-13T07:35:39.564Z,5.67
2017-09-13T07:38:05.512Z,3.10
2017-09-13T07:40:31.445Z,3.10
2017-09-13T07:42:58.009Z,3.23
2017-09-13T07:45:24.211Z,2.90
2017-09-13T07:47:51.186Z,2.87
2017-09-13T07:50:17.142Z,3.30
2017-09-13T07:52:43.320Z,3.43
2017-09-13T07:55:09.496Z,3.60
2017-09-13T07:57:35.499Z,3.10
2017-09-13T08:00:01.450Z,3.40
2017-09-13T08:02:27.398Z,3.37
2017-09-13T08:04:53.383Z,3.70
2017-09-13T08:07:19.356Z,4.10
2017-09-13T08:09:45.303Z,3.70
2017-09-13T08:12:11.223Z,3.60
2017-09-13T08:14:37.166Z,3.00
2017-09-13T08:17:03.139Z,4.30
2017-09-13T08:19:29.214Z,3.70
2017-09-13T08:21:55.286Z,5.23
2017-09-13T08:24:21.239Z,3.97
2017-09-13T08:26:47.220Z,3.57
2017-09-13T08:29:13.148Z,3.97
2017-09-13T08:31:39.169Z,4.00
2017-09-13T08:34:05.099Z,3.73
2017-09-13T08:36:31.068Z,3.90
2017-09-13T08:38:57.042Z,3.80
2017-09-13T08:41:23.713Z,3.93
2017-09-13T08:43:49.615Z,3.53
2017-09-13T08:46:15.550Z,4.73
2017-09-13T08:48:41.468Z,3.77
2017-09-13T08:51:07.485Z,3.70
2017-09-13T08:53:33.415Z,6.53
2017-09-13T08:55:59.515Z,4.10
2017-09-13T08:58:26.209Z,5.03
2017-09-13T09:00:52.147Z,4.80
2017-09-13T09:03:18.108Z,4.67
2017-09-13T09:05:44.068Z,4.20
2017-09-13T09:08:10.015Z,4.10
2017-09-13T09:10:35.976Z,4.00
2017-09-13T09:13:02.035Z,3.70
2017-09-13T09:15:28.069Z,4.20
2017-09-13T09:17:54.052Z,4.30
2017-09-13T09:20:20.019Z,4.27
2017-09-13T09:22:45.965Z,3.97
2017-09-13T09:25:11.951Z,3.93
2017-09-13T09:27:37.911Z,3.90
2017-09-13T09:30:03.850Z,3.33
2017-09-13T09:32:29.775Z,2.90
2017-09-13T09:34:55.701Z,3.10
2017-09-13T09:37:21.723Z,2.90
2017-09-13T09:39:47.701Z,2.90
2017-09-13T09:42:13.655Z,2.87
2017-09-13T09:44:39.587Z,2.33
2017-09-13T09:47:05.659Z,2.50
2017-09-13T09:49:31.614Z,2.80
2017-09-13T09:51:57.551Z,2.40
2017-09-13T09:54:23.465Z,2.50
2017-09-13T09:56:49.384Z,2.30
2017-09-13T09:59:15.349Z,2.00
2017-09-13T10:01:41.313Z,2.10
2017-09-13T10:04:07.316Z,2.10
2017-09-13T10:06:33.305Z,2.10
2017-09-13T10:08:59.235Z,2.00
2017-09-13T10:11:25.180Z,1.90
2017-09-13T10:13:51.836Z,1.77
2017-09-13T10:16:17.754Z,1.60
2017-09-13T10:18:43.712Z,1.73
2017-09-13T10:21:09.691Z,1.70
2017-09-13T10:23:36.059Z,1.70
2017-09-13T10:26:02.024Z,1.47
2017-09-13T10:28:27.952Z,2.20
2017-09-13T10:30:53.956Z,6.60
2017-09-13T10:33:19.943Z,1.60
2017-09-13T10:35:46.080Z,1.60
2017-09-13T10:38:12.113Z,1.73
2017-09-13T10:40:38.150Z,1.83
2017-09-13T10:43:04.198Z,1.70
2017-09-13T10:45:31.082Z,1.63
2017-09-13T10:47:57.210Z,2.07
2017-09-13T10:50:23.167Z,1.60
2017-09-13T10:52:49.106Z,1.70
2017-09-13T10:55:15.040Z,1.70
2017-09-13T10:57:41.004Z,2.30
2017-09-13T11:00:06.952Z,1.77
2017-09-13T11:02:32.906Z,2.10
2017-09-13T11:04:59.597Z,2.90
2017-09-13T11:07:25.537Z,3.07
2017-09-13T11:09:51.504Z,2.50
2017-09-13T11:12:17.508Z,1.97
2017-09-13T11:14:49.627Z,2.17
2017-09-13T11:17:15.655Z,2.67
2017-09-13T11:19:41.617Z,2.50
2017-09-13T11:22:07.663Z,2.50
2017-09-13T11:24:33.653Z,3.47
2017-09-13T11:26:59.592Z,3.20
2017-09-13T11:29:25.564Z,4.10
2017-09-13T11:31:51.624Z,2.83
2017-09-13T11:34:17.660Z,2.83
2017-09-13T11:36:43.683Z,3.30
2017-09-13T11:39:09.663Z,3.00
2017-09-13T11:41:35.762Z,3.03
2017-09-13T11:44:01.691Z,2.53
2017-09-13T11:46:27.691Z,2.10
2017-09-13T11:48:53.655Z,2.83
2017-09-13T11:51:19.678Z,2.33
2017-09-13T11:53:46.124Z,2.30
2017-09-13T11:56:12.076Z,2.40
2017-09-13T11:58:38.027Z,3.00
2017-09-13T12:01:04.526Z,2.33
2017-09-13T12:03:30.498Z,2.07
2017-09-13T12:05:56.471Z,2.37
2017-09-13T12:08:22.385Z,2.60
2017-09-13T12:10:48.304Z,3.50
2017-09-13T12:13:14.200Z,2.40
2017-09-13T12:15:40.386Z,2.50
2017-09-13T12:18:06.303Z,2.23
2017-09-13T12:20:32.198Z,2.67
2017-09-13T12:22:58.765Z,2.20
2017-09-13T12:25:24.664Z,2.47
2017-09-13T12:27:50.661Z,2.83
2017-09-13T12:30:16.640Z,3.10
2017-09-13T12:32:43.596Z,3.47
2017-09-13T12:35:10.341Z,3.60
2017-09-13T12:37:36.416Z,3.50
2017-09-13T12:40:03.928Z,3.53
2017-09-13T12:42:31.326Z,3.40
2017-09-13T12:44:58.309Z,3.50
2017-09-13T12:47:24.280Z,3.97
2017-09-13T12:49:51.020Z,3.53
2017-09-13T12:52:17.428Z,3.67
2017-09-13T12:54:43.708Z,3.40
2017-09-13T12:57:09.677Z,3.03
2017-09-13T12:59:37.931Z,3.37
2017-09-13T13:02:04.075Z,3.10
2017-09-13T13:04:32.260Z,3.00
2017-09-13T13:06:58.214Z,3.47
2017-09-13T13:09:25.302Z,3.27
2017-09-13T13:11:51.338Z,5.10
2017-09-13T13:14:17.357Z,3.87
2017-09-13T13:16:45.186Z,4.00
2017-09-13T13:19:11.216Z,3.60
2017-09-13T13:21:37.734Z,3.07
2017-09-13T13:24:03.696Z,3.60
2017-09-13T13:26:29.743Z,2.70
2017-09-13T13:28:55.724Z,3.40
2017-09-13T13:31:21.765Z,3.33
2017-09-13T13:33:47.715Z,3.03
2017-09-13T13:36:13.852Z,2.83
2017-09-13T13:38:39.814Z,3.23
2017-09-13T13:41:05.842Z,3.70
2017-09-13T13:43:31.887Z,2.40
2017-09-13T13:45:57.850Z,3.23
2017-09-13T13:48:23.872Z,3.67
2017-09-13T13:50:49.831Z,2.97
2017-09-13T13:53:15.771Z,2.77
2017-09-13T13:55:42.492Z,2.90
2017-09-13T13:58:09.206Z,3.10
2017-09-13T14:00:35.170Z,3.23
2017-09-13T14:03:01.848Z,3.73
2017-09-13T14:05:27.831Z,3.07
2017-09-13T14:07:53.804Z,3.33
2017-09-13T14:10:20.811Z,3.13
2017-09-13T14:12:46.809Z,4.00
2017-09-13T14:15:13.650Z,3.53
2017-09-13T14:17:39.848Z,3.20
2017-09-13T14:20:05.888Z,3.20
2017-09-13T14:22:32.076Z,3.20
2017-09-13T14:24:58.076Z,3.67
2017-09-13T14:27:24.089Z,3.33
2017-09-13T14:29:50.224Z,3.20
2017-09-13T14:32:16.242Z,3.17
2017-09-13T14:34:42.303Z,2.90
2017-09-13T14:37:09.624Z,2.50
2017-09-13T14:39:35.647Z,3.07
2017-09-13T14:42:01.642Z,3.60
2017-09-13T14:44:27.619Z,3.27
2017-09-13T14:46:53.556Z,2.90
2017-09-13T14:49:19.479Z,3.40
2017-09-13T14:51:45.507Z,3.47
2017-09-13T14:54:11.448Z,3.40
2017-09-13T14:56:37.412Z,2.87
2017-09-13T14:59:03.492Z,2.70
2017-09-13T15:01:29.432Z,2.87
2017-09-13T15:06:28.209Z,3.00
2017-09-13T15:08:54.136Z,3.53
2017-09-13T15:11:21.273Z,2.90
2017-09-13T15:13:47.473Z,3.20
2017-09-13T15:16:14.106Z,2.97
2017-09-13T15:18:40.672Z,2.83
2017-09-13T15:21:07.424Z,2.90
2017-09-13T15:23:34.131Z,2.80
2017-09-13T15:26:00.076Z,2.80
2017-09-13T15:28:26.718Z,2.50
2017-09-13T15:30:53.462Z,2.90
2017-09-13T15:33:19.416Z,2.93
2017-09-13T15:35:45.343Z,2.70
2017-09-13T15:38:11.279Z,3.13
2017-09-13T15:40:37.248Z,2.90
2017-09-13T15:43:03.220Z,3.00
2017-09-13T15:45:29.219Z,3.50
2017-09-13T15:47:55.149Z,3.10
2017-09-13T15:50:21.121Z,2.60
2017-09-13T15:52:47.142Z,3.30
2017-09-13T15:55:13.152Z,2.80
2017-09-13T15:57:39.200Z,4.13
2017-09-13T16:00:05.224Z,2.93
2017-09-13T16:02:33.925Z,3.10
2017-09-13T16:05:01.067Z,3.10
2017-09-13T16:07:27.029Z,3.23
2017-09-13T16:09:52.976Z,2.80
2017-09-13T16:12:21.639Z,2.40
2017-09-13T16:14:48.367Z,2.50
2017-09-13T16:17:14.331Z,3.10
2017-09-13T16:19:40.277Z,2.87
2017-09-13T16:22:06.285Z,2.97
2017-09-13T16:24:32.992Z,2.80
2017-09-13T16:26:58.916Z,2.90
2017-09-13T16:29:24.896Z,3.03
2017-09-13T16:31:51.615Z,2.60
2017-09-13T16:34:17.540Z,3.00
2017-09-13T16:36:43.492Z,2.50
2017-09-13T16:39:09.434Z,2.70
2017-09-13T16:41:35.384Z,3.00
2017-09-13T16:44:01.411Z,3.63
2017-09-13T16:46:28.084Z,2.83
2017-09-13T16:48:54.111Z,2.97
2017-09-13T16:51:20.135Z,2.93
2017-09-13T16:53:46.104Z,2.57
2017-09-13T16:56:12.131Z,2.70
2017-09-13T16:58:38.847Z,2.90
2017-09-13T17:01:04.797Z,2.67
2017-09-13T17:03:31.533Z,2.60
2017-09-13T17:05:58.200Z,2.50
2017-09-13T17:08:24.148Z,2.83
2017-09-13T17:10:50.872Z,2.77
2017-09-13T17:13:16.836Z,2.73
2017-09-13T17:15:42.801Z,2.90
2017-09-13T17:18:08.743Z,3.87
2017-09-13T17:20:34.692Z,3.60
2017-09-13T17:23:00.639Z,2.63
2017-09-13T17:25:27.331Z,2.70
2017-09-13T17:27:53.270Z,2.83
2017-09-13T17:30:19.197Z,3.00
2017-09-13T17:32:45.879Z,2.70
2017-09-13T17:35:11.873Z,2.83
2017-09-13T17:37:38.592Z,3.00
2017-09-13T17:40:04.572Z,2.93
2017-09-13T17:42:30.482Z,3.47
2017-09-13T17:44:56.398Z,3.10
2017-09-13T17:47:22.325Z,3.33
2017-09-13T17:49:48.295Z,3.90
2017-09-13T17:52:14.235Z,3.33
2017-09-13T17:54:40.907Z,3.63
2017-09-13T17:57:06.920Z,3.63
2017-09-13T17:59:32.852Z,4.27
2017-09-13T18:01:58.812Z,3.67
2017-09-13T18:04:25.756Z,6.63
2017-09-13T18:06:51.735Z,8.03
2017-09-13T18:09:17.698Z,3.87
2017-09-13T18:11:43.631Z,3.40
2017-09-13T18:14:09.615Z,3.83
2017-09-13T18:16:35.535Z,4.30
2017-09-13T18:19:01.494Z,3.53
2017-09-13T18:21:27.462Z,3.80
2017-09-13T18:23:53.412Z,3.73
2017-09-13T18:26:19.361Z,3.63
2017-09-13T18:28:45.310Z,3.83
2017-09-13T18:31:11.264Z,3.87
2017-09-13T18:33:37.206Z,4.37
2017-09-13T18:36:03.119Z,5.20
2017-09-13T18:38:29.048Z,4.23
2017-09-13T18:40:54.977Z,4.13
2017-09-13T18:43:21.014Z,3.67
2017-09-13T18:45:48.492Z,3.40
2017-09-13T18:48:14.515Z,3.30
2017-09-13T18:50:40.466Z,4.30
2017-09-13T18:53:06.402Z,3.97
2017-09-13T18:55:32.340Z,3.63
2017-09-13T18:57:58.481Z,4.80
2017-09-13T19:00:25.176Z,3.90
2017-09-13T19:02:51.455Z,3.50
2017-09-13T19:05:18.112Z,3.90
2017-09-13T19:07:44.707Z,6.13
2017-09-13T19:10:10.642Z,5.00
2017-09-13T19:12:37.512Z,4.83
2017-09-13T19:15:03.990Z,4.10
2017-09-13T19:17:30.866Z,4.87
2017-09-13T19:19:58.471Z,4.00
2017-09-13T19:22:24.416Z,4.70
2017-09-13T19:24:50.367Z,3.77
2017-09-13T19:27:17.107Z,3.80
2017-09-13T19:29:43.060Z,3.70
2017-09-13T19:32:09.996Z,4.13
2017-09-13T19:34:36.232Z,4.40
2017-09-13T19:37:02.186Z,4.00
2017-09-13T19:39:28.614Z,5.47
2017-09-13T19:41:55.427Z,3.90
2017-09-13T19:44:21.372Z,4.70
2017-09-13T19:46:48.104Z,6.77
2017-09-13T19:49:15.071Z,4.20
2017-09-13T19:51:41.031Z,5.30
2017-09-13T19:54:07.565Z,3.63
2017-09-13T19:56:34.935Z,4.43
2017-09-13T19:59:00.912Z,4.77
2017-09-13T20:01:26.902Z,5.20
2017-09-13T20:03:52.825Z,3.93
2017-09-13T20:06:18.827Z,4.50
2017-09-13T20:08:45.591Z,5.23
2017-09-13T20:11:13.122Z,4.70
2017-09-13T20:13:39.083Z,5.80
2017-09-13T20:16:05.030Z,4.63
2017-09-13T20:18:31.721Z,4.97
2017-09-13T20:20:58.457Z,5.67
2017-09-13T20:23:24.384Z,5.00
2017-09-13T20:25:51.637Z,4.90
2017-09-13T20:28:17.665Z,4.57
2017-09-13T20:30:43.595Z,4.97
2017-09-13T20:33:09.511Z,4.53
2017-09-13T20:35:35.461Z,4.10
2017-09-13T20:38:01.607Z,4.20
2017-09-13T20:40:27.577Z,4.80
2017-09-13T20:42:53.507Z,4.70
2017-09-13T20:45:19.471Z,4.60
2017-09-13T20:47:46.072Z,5.00
2017-09-13T20:50:12.007Z,5.37
2017-09-13T20:52:40.093Z,6.33
2017-09-13T20:55:06.211Z,5.30
2017-09-13T20:57:32.167Z,5.53
2017-09-13T20:59:58.167Z,4.00
2017-09-13T21:02:24.072Z,4.80
2017-09-13T21:04:50.008Z,4.03
2017-09-13T21:07:15.959Z,4.27
2017-09-13T21:09:41.906Z,5.03
2017-09-13T21:12:07.831Z,4.07
2017-09-13T21:14:33.787Z,3.73
2017-09-13T21:16:59.739Z,4.17
2017-09-13T21:19:25.663Z,4.40
2017-09-13T21:21:51.634Z,3.97
2017-09-13T21:24:17.590Z,4.37
2017-09-13T21:26:43.563Z,4.63
2017-09-13T21:29:10.607Z,3.53
2017-09-13T21:31:37.423Z,3.80
2017-09-13T21:34:03.456Z,4.10
2017-09-13T21:36:29.379Z,3.80
2017-09-13T21:38:55.306Z,3.87
2017-09-13T21:41:21.268Z,3.70
2017-09-13T21:43:47.220Z,3.70
2017-09-13T21:46:13.208Z,5.10
2017-09-13T21:48:39.134Z,3.73
2017-09-13T21:51:05.036Z,4.20
2017-09-13T21:53:31.719Z,3.20
2017-09-13T21:55:57.657Z,3.77
2017-09-13T21:58:23.591Z,3.87
2017-09-13T22:00:49.543Z,3.73
2017-09-13T22:03:15.474Z,3.80
2017-09-13T22:05:41.474Z,3.70
2017-09-13T22:08:08.175Z,4.00
2017-09-13T22:10:34.253Z,3.33
2017-09-13T22:13:00.957Z,3.60
2017-09-13T22:15:27.026Z,3.40
2017-09-13T22:17:53.710Z,3.80
2017-09-13T22:20:19.647Z,3.10
2017-09-13T22:22:45.580Z,3.60
2017-09-13T22:25:12.988Z,3.63
2017-09-13T22:27:38.932Z,3.60
2017-09-13T22:30:04.916Z,4.17
2017-09-13T22:32:30.879Z,3.60
2017-09-13T22:34:56.916Z,3.33
2017-09-13T22:37:22.931Z,3.73
2017-09-13T22:39:48.906Z,3.60
2017-09-13T22:42:14.815Z,3.67
2017-09-13T22:44:40.727Z,4.20
2017-09-13T22:47:06.649Z,4.37
2017-09-13T22:49:32.590Z,3.50
2017-09-13T22:51:59.336Z,3.30
2017-09-13T22:54:25.303Z,3.90
2017-09-13T22:56:51.227Z,3.43
2017-09-13T22:59:17.235Z,3.83
2017-09-13T23:01:43.156Z,3.00
2017-09-13T23:04:09.067Z,3.07
2017-09-13T23:06:35.003Z,3.50
2017-09-13T23:09:01.750Z,3.30
2017-09-13T23:11:27.684Z,3.83
2017-09-13T23:13:53.599Z,3.13
2017-09-13T23:16:19.567Z,2.73
2017-09-13T23:18:45.491Z,2.60
2017-09-13T23:21:11.464Z,3.27
2017-09-13T23:23:37.391Z,3.33
2017-09-13T23:26:03.383Z,3.20
2017-09-13T23:28:29.336Z,3.20
2017-09-13T23:30:55.287Z,3.23
2017-09-13T23:33:21.215Z,2.90
2017-09-13T23:35:47.131Z,3.20
2017-09-13T23:38:13.175Z,2.60
2017-09-13T23:40:39.162Z,2.77
2017-09-13T23:43:05.097Z,2.53
2017-09-13T23:45:31.820Z,3.53
2017-09-13T23:47:57.760Z,2.20
2017-09-13T23:50:23.691Z,2.30
2017-09-13T23:52:49.626Z,2.00
2017-09-13T23:55:15.548Z,2.07
2017-09-13T23:57:41.527Z,1.80
